Time;durP1;ratioP1;P1;durP2;ratioP2;P2;SDS_P1;SDS_P2;PMS_P1;PMS_P2;Temp;Humidity;BMP_temperature;BMP_pressure;BME280_temperature;BME280_humidity;BME280_pressure;Samples;Min_cycle;Max_cycle;Signal;HPM_P1;HPM_P2
2021/06/30 00:00:31;;;;;;;20.90;12.35;;;;;;;24.92;39.07;100910.78;4392247;32;20047;-80
2021/06/30 00:02:57;;;;;;;24.95;12.15;;;;;;;24.91;38.97;100906.31;4397296;32;20178;-77
2021/06/30 00:05:22;;;;;;;19.33;12.00;;;;;;;24.93;39.03;100902.91;4400513;32;20082;-77
2021/06/30 00:07:48;;;;;;;22.10;13.32;;;;;;;24.91;39.11;100905.56;4401205;32;20081;-77
2021/06/30 00:10:16;;;;;;;26.05;13.75;;;;;;;24.38;40.06;100894.59;4398289;32;20034;-75
2021/06/30 00:12:41;;;;;;;25.30;13.95;;;;;;;24.84;39.50;100894.59;4399338;32;20070;-76
2021/06/30 00:15:12;;;;;;;25.77;14.77;;;;;;;24.63;39.71;100887.63;4401536;32;20125;-76
2021/06/30 00:17:38;;;;;;;23.02;14.43;;;;;;;24.92;39.39;100896.38;4397939;32;20075;-76
2021/06/30 00:20:05;;;;;;;25.90;13.98;;;;;;;24.46;40.05;100889.84;4400415;32;20557;-75
2021/06/30 00:22:32;;;;;;;25.52;14.65;;;;;;;24.29;40.52;100901.44;4400505;32;20096;-76
2021/06/30 00:24:58;;;;;;;26.77;15.32;;;;;;;24.46;40.34;100907.91;4402072;32;20034;-76
2021/06/30 00:27:25;;;;;;;25.58;15.57;;;;;;;24.22;40.87;100906.97;4399450;32;20096;-77
2021/06/30 00:29:51;;;;;;;26.65;14.13;;;;;;;24.08;40.99;100910.94;4399329;32;20078;-77
2021/06/30 00:32:17;;;;;;;23.15;15.00;;;;;;;24.25;40.72;100900.16;4399570;32;20038;-76
2021/06/30 00:34:43;;;;;;;26.55;14.05;;;;;;;24.22;40.76;100904.06;4402009;32;20043;-76
2021/06/30 00:37:10;;;;;;;23.08;13.85;;;;;;;23.97;41.37;100900.28;4400766;32;20397;-77
2021/06/30 00:39:35;;;;;;;32.70;15.52;;;;;;;24.03;41.29;100889.53;4399412;32;20412;-76
2021/06/30 00:42:02;;;;;;;30.92;15.15;;;;;;;23.94;41.30;100898.41;4400141;32;20295;-77
2021/06/30 00:44:33;;;;;;;28.73;14.52;;;;;;;24.01;41.05;100897.09;4397142;32;20089;-76
2021/06/30 00:46:59;;;;;;;24.67;14.02;;;;;;;23.82;41.20;100898.97;4400008;32;20022;-78
2021/06/30 00:49:24;;;;;;;26.52;14.50;;;;;;;23.79;41.43;100897.94;4401327;32;20345;-77
2021/06/30 00:51:50;;;;;;;25.62;13.43;;;;;;;23.98;41.06;100898.16;4386335;32;20030;-78
2021/06/30 00:54:16;;;;;;;23.08;13.77;;;;;;;23.76;41.28;100886.69;4402503;32;20097;-75
2021/06/30 00:56:43;;;;;;;21.75;12.45;;;;;;;23.61;41.61;100880.47;4400606;32;20130;-76
2021/06/30 00:59:12;;;;;;;26.00;13.35;;;;;;;23.96;41.12;100889.28;4400455;32;20154;-75
2021/06/30 01:01:38;;;;;;;23.55;12.10;;;;;;;24.09;40.86;100883.75;4402053;32;20105;-78
2021/06/30 01:04:04;;;;;;;23.85;12.15;;;;;;;23.96;40.57;100886.41;4398609;32;20031;-78
2021/06/30 01:06:30;;;;;;;22.58;12.37;;;;;;;24.00;40.23;100884.84;4403355;32;20053;-76
2021/06/30 01:08:56;;;;;;;22.65;11.82;;;;;;;24.04;40.58;100893.97;4398498;32;20070;-78
2021/06/30 01:11:22;;;;;;;26.83;12.30;;;;;;;24.18;40.25;100890.00;4401365;32;20145;-76
2021/06/30 01:13:48;;;;;;;19.60;11.35;;;;;;;24.44;39.91;100876.00;4403415;32;20388;-80
2021/06/30 01:16:15;;;;;;;17.30;11.15;;;;;;;24.46;39.84;100881.22;4401294;32;20395;-76
2021/06/30 01:18:40;;;;;;;17.48;11.12;;;;;;;24.59;39.76;100881.37;4401235;32;20034;-77
2021/06/30 01:21:09;;;;;;;24.37;11.80;;;;;;;24.57;39.42;100881.91;4398091;32;20458;-77
2021/06/30 01:23:36;;;;;;;23.55;12.10;;;;;;;24.72;39.20;100881.59;4400000;32;20030;-77
2021/06/30 01:26:02;;;;;;;21.33;11.80;;;;;;;24.63;39.32;100884.75;4399839;32;20320;-75
2021/06/30 01:28:28;;;;;;;20.25;11.70;;;;;;;24.66;39.57;100873.00;4383281;32;20080;-78
2021/06/30 01:30:55;;;;;;;26.02;12.32;;;;;;;24.72;39.28;100876.63;4379976;32;20073;-80
2021/06/30 01:33:22;;;;;;;21.35;11.85;;;;;;;24.79;39.28;100875.28;4396743;32;20056;-80
2021/06/30 01:35:48;;;;;;;19.92;12.00;;;;;;;24.63;39.51;100870.38;4392526;32;20070;-77
2021/06/30 01:38:14;;;;;;;23.77;12.00;;;;;;;24.46;39.76;100869.72;4397801;32;20018;-77
2021/06/30 01:40:40;;;;;;;25.62;12.48;;;;;;;24.72;39.47;100878.72;4392960;32;20086;-79
2021/06/30 01:43:06;;;;;;;22.35;12.15;;;;;;;24.68;39.44;100876.12;4393457;32;20026;-79
2021/06/30 01:45:33;;;;;;;20.55;12.45;;;;;;;24.62;39.79;100881.13;4394003;32;20128;-78
2021/06/30 01:47:59;;;;;;;18.48;11.82;;;;;;;24.66;39.64;100875.09;4383231;32;20128;-79
2021/06/30 01:50:24;;;;;;;21.45;11.77;;;;;;;24.76;39.34;100880.00;4394519;32;21379;-77
2021/06/30 01:52:50;;;;;;;19.08;10.98;;;;;;;24.68;39.48;100870.38;4393456;32;20055;-78
2021/06/30 01:55:16;;;;;;;23.42;11.70;;;;;;;24.79;39.14;100878.94;4392583;32;20100;-76
2021/06/30 02:00:20;;;;;;;22.05;12.80;;;;;;;25.24;38.76;100871.50;3984772;32;15155370;-75
2021/06/30 02:02:48;;;;;;;19.77;11.73;;;;;;;25.24;38.76;100871.50;4425933;32;20026;-76
2021/06/30 02:05:18;;;;;;;24.37;12.37;;;;;;;24.91;39.24;100863.13;4425150;32;20150;-77
2021/06/30 02:07:47;;;;;;;28.58;12.75;;;;;;;24.44;40.17;100855.06;4422077;32;20061;-79
2021/06/30 02:10:14;;;;;;;22.70;12.27;;;;;;;24.62;39.91;100860.19;4423850;32;20058;-78
2021/06/30 02:12:40;;;;;;;20.45;11.15;;;;;;;24.66;39.95;100855.72;4423430;32;20079;-76
2021/06/30 02:15:11;;;;;;;23.50;12.15;;;;;;;24.56;39.86;100853.69;4424449;32;20070;-77
2021/06/30 02:17:37;;;;;;;26.42;12.48;;;;;;;24.60;39.91;100857.03;4423613;32;20034;-78
2021/06/30 02:20:09;;;;;;;23.45;12.70;;;;;;;24.37;40.30;100850.66;4424435;32;20130;-77
2021/06/30 02:22:38;;;;;;;20.77;11.38;;;;;;;24.59;39.77;100856.28;4422588;32;20025;-77
2021/06/30 02:25:08;;;;;;;22.25;12.70;;;;;;;24.31;40.26;100846.25;4426795;32;20182;-78
2021/06/30 02:27:34;;;;;;;19.77;11.95;;;;;;;24.50;40.02;100850.84;4428932;32;20041;-77
2021/06/30 02:30:01;;;;;;;29.00;12.70;;;;;;;24.40;39.89;100849.59;4422466;32;20022;-77
2021/06/30 02:32:27;;;;;;;20.77;11.80;;;;;;;24.37;40.10;100842.03;4423462;32;20066;-78
2021/06/30 02:34:54;;;;;;;22.08;12.18;;;;;;;24.33;40.07;100846.50;4422968;32;20159;-75
2021/06/30 02:37:19;;;;;;;21.73;13.32;;;;;;;24.09;40.46;100844.28;4422230;32;20034;-77
2021/06/30 02:39:45;;;;;;;21.37;12.55;;;;;;;24.06;40.62;100839.59;4422781;32;20145;-77
2021/06/30 02:42:11;;;;;;;23.42;12.95;;;;;;;24.11;40.63;100847.41;4426203;32;20025;-75
2021/06/30 02:44:37;;;;;;;20.08;12.52;;;;;;;24.08;40.81;100842.69;4424247;32;20038;-75
2021/06/30 02:47:03;;;;;;;25.27;13.13;;;;;;;24.21;40.39;100845.78;4421917;32;20066;-78
2021/06/30 02:49:29;;;;;;;23.25;12.65;;;;;;;24.28;40.16;100853.06;4424661;32;20093;-76
2021/06/30 02:51:54;;;;;;;21.45;11.63;;;;;;;24.29;40.15;100841.03;4423095;32;20087;-75
2021/06/30 02:54:20;;;;;;;18.90;11.20;;;;;;;24.04;40.29;100853.72;4422632;32;20523;-79
2021/06/30 02:56:46;;;;;;;21.27;11.32;;;;;;;23.83;40.44;100855.31;4422241;32;20076;-79
2021/06/30 02:59:12;;;;;;;20.05;10.82;;;;;;;24.25;39.65;100860.66;4424037;32;20188;-76
2021/06/30 03:01:38;;;;;;;19.52;10.02;;;;;;;24.09;39.87;100858.66;4421280;32;20073;-77
2021/06/30 03:04:04;;;;;;;15.98;10.02;;;;;;;23.97;39.77;100860.03;4420647;32;20034;-76
2021/06/30 03:06:30;;;;;;;16.55;10.55;;;;;;;24.00;39.71;100856.09;4426188;32;20052;-76
2021/06/30 03:08:56;;;;;;;16.12;9.50;;;;;;;24.10;39.30;100856.56;4423497;32;20073;-77
2021/06/30 03:11:22;;;;;;;16.10;9.85;;;;;;;24.04;39.46;100861.53;4414529;32;20310;-78
2021/06/30 03:13:48;;;;;;;15.63;9.77;;;;;;;23.99;39.62;100860.25;4414455;32;20108;-77
2021/06/30 03:16:15;;;;;;;17.52;10.30;;;;;;;23.91;39.59;100859.22;4415773;32;20081;-77
2021/06/30 03:18:41;;;;;;;17.05;10.02;;;;;;;23.63;40.21;100860.63;4411425;32;20073;-80
2021/06/30 03:21:07;;;;;;;17.55;9.75;;;;;;;23.63;40.34;100860.63;4413838;32;20100;-77
2021/06/30 03:23:33;;;;;;;22.73;10.52;;;;;;;23.73;39.91;100861.88;4413782;32;20122;-78
2021/06/30 03:25:59;;;;;;;17.92;10.02;;;;;;;23.47;40.52;100865.06;4411521;32;20039;-77
2021/06/30 03:28:25;;;;;;;22.25;10.98;;;;;;;23.54;40.45;100867.44;4412462;32;20065;-75
2021/06/30 03:30:50;;;;;;;17.55;10.18;;;;;;;23.16;41.42;100871.09;4410373;32;20026;-78
2021/06/30 03:33:16;;;;;;;18.02;10.18;;;;;;;23.52;40.62;100867.16;4409190;32;20094;-76
2021/06/30 03:35:41;;;;;;;17.25;9.75;;;;;;;23.77;40.21;100871.81;4417940;32;20061;-77
2021/06/30 03:38:07;;;;;;;18.30;10.38;;;;;;;23.69;40.26;100867.94;4410618;32;20128;-77
2021/06/30 03:40:33;;;;;;;17.17;10.52;;;;;;;23.09;41.61;100869.53;4412791;32;20108;-78
2021/06/30 03:42:58;;;;;;;19.23;10.85;;;;;;;23.57;40.67;100871.34;4415876;32;20065;-77
2021/06/30 03:45:24;;;;;;;16.12;9.48;;;;;;;23.26;41.12;100869.56;4412847;32;20031;-80
2021/06/30 03:47:49;;;;;;;20.05;10.40;;;;;;;23.42;40.85;100874.50;4413530;32;20027;-77
2021/06/30 03:50:15;;;;;;;15.65;9.95;;;;;;;23.49;40.68;100876.84;4413403;32;20403;-77
2021/06/30 03:52:41;;;;;;;17.62;10.00;;;;;;;23.65;40.46;100881.75;4414563;32;20031;-78
2021/06/30 03:55:07;;;;;;;17.08;8.93;;;;;;;23.78;40.11;100879.12;4414275;32;20141;-79
2021/06/30 03:57:33;;;;;;;18.12;9.88;;;;;;;24.05;39.71;100881.13;4412115;32;20492;-79
2021/06/30 03:59:59;;;;;;;15.13;9.75;;;;;;;24.10;39.57;100877.47;4412742;32;20038;-78
2021/06/30 04:02:24;;;;;;;19.35;9.57;;;;;;;24.08;39.56;100879.31;4412731;32;20094;-78
2021/06/30 04:04:50;;;;;;;23.83;10.00;;;;;;;23.99;39.70;100877.50;4413255;32;20069;-78
2021/06/30 04:07:16;;;;;;;19.20;9.73;;;;;;;23.86;39.86;100870.72;4412952;32;20073;-77
2021/06/30 04:09:42;;;;;;;16.40;9.32;;;;;;;23.91;39.70;100876.47;4412592;32;20495;-76
2021/06/30 04:12:07;;;;;;;18.05;9.07;;;;;;;24.05;39.47;100883.25;4409756;32;20321;-78
2021/06/30 04:14:33;;;;;;;13.52;8.77;;;;;;;23.74;39.92;100883.59;4410916;32;20102;-76
2021/06/30 04:16:59;;;;;;;15.75;9.68;;;;;;;23.87;39.82;100887.44;4412746;32;20058;-80
2021/06/30 04:19:25;;;;;;;17.33;9.10;;;;;;;23.85;39.71;100878.59;4412989;32;20651;-78
2021/06/30 04:21:51;;;;;;;17.15;8.93;;;;;;;24.02;39.50;100876.44;4413344;32;20448;-77
2021/06/30 04:24:16;;;;;;;18.08;8.98;;;;;;;23.81;39.58;100875.22;4412811;32;20034;-77
2021/06/30 04:26:42;;;;;;;16.05;9.30;;;;;;;23.92;39.46;100874.37;4413178;32;20066;-79
2021/06/30 04:29:09;;;;;;;17.55;8.55;;;;;;;24.10;39.02;100871.72;4412439;32;20531;-78
2021/06/30 04:31:35;;;;;;;19.52;9.45;;;;;;;24.16;38.83;100872.47;4410870;32;20328;-78
2021/06/30 04:34:01;;;;;;;13.20;8.15;;;;;;;24.12;39.15;100874.84;4411254;32;20101;-77
2021/06/30 04:36:27;;;;;;;15.00;8.30;;;;;;;24.11;39.09;100878.25;4414470;32;20023;-76
2021/06/30 04:38:53;;;;;;;17.77;9.85;;;;;;;23.98;39.36;100892.41;4412834;32;20077;-78
2021/06/30 04:41:19;;;;;;;14.82;8.85;;;;;;;24.17;39.07;100884.78;4411619;32;20096;-77
2021/06/30 04:43:45;;;;;;;14.45;9.07;;;;;;;24.27;38.89;100892.53;4412820;32;20062;-79
2021/06/30 04:46:10;;;;;;;13.68;8.32;;;;;;;24.22;38.89;100881.06;4411682;32;20458;-79
2021/06/30 04:48:36;;;;;;;19.83;9.20;;;;;;;24.06;39.10;100885.59;4413063;32;20073;-77
2021/06/30 04:51:02;;;;;;;15.45;9.07;;;;;;;24.17;39.05;100893.41;4411441;32;20537;-78
2021/06/30 04:53:29;;;;;;;16.48;8.25;;;;;;;24.34;38.79;100892.00;4415798;32;20045;-76
2021/06/30 04:55:55;;;;;;;12.57;7.93;;;;;;;24.48;38.45;100895.88;4414405;32;20069;-76
2021/06/30 04:58:23;;;;;;;12.52;7.85;;;;;;;24.35;38.61;100893.56;4410587;32;20056;-78
2021/06/30 05:00:53;;;;;;;14.35;8.65;;;;;;;24.45;38.52;100899.81;4411980;32;20101;-77
2021/06/30 05:03:19;;;;;;;14.77;9.25;;;;;;;23.99;39.36;100894.00;4410910;32;20030;-77
2021/06/30 05:05:45;;;;;;;14.75;7.90;;;;;;;24.19;38.94;100900.19;4413885;32;20038;-77
2021/06/30 05:08:11;;;;;;;14.68;8.48;;;;;;;24.25;38.75;100897.28;4412140;32;20066;-76
2021/06/30 05:10:37;;;;;;;14.95;8.27;;;;;;;24.07;39.33;100897.87;4412099;32;20070;-78
2021/06/30 05:13:03;;;;;;;17.92;8.25;;;;;;;24.26;38.83;100898.81;4413020;32;20085;-78
2021/06/30 05:15:29;;;;;;;12.23;7.85;;;;;;;24.33;38.82;100906.91;4411475;32;20266;-77
2021/06/30 05:17:55;;;;;;;12.80;7.93;;;;;;;24.32;38.57;100909.00;4414551;32;20536;-77
2021/06/30 05:20:21;;;;;;;14.77;7.15;;;;;;;23.97;39.11;100908.91;4411475;32;20052;-77
2021/06/30 05:22:47;;;;;;;11.43;7.68;;;;;;;23.65;39.80;100899.00;4415187;32;20057;-77
2021/06/30 05:25:13;;;;;;;16.67;7.30;;;;;;;23.79;39.80;100903.69;4411616;32;20030;-77
2021/06/30 05:27:39;;;;;;;11.73;7.10;;;;;;;24.15;39.06;100907.53;4414659;32;20143;-76
2021/06/30 05:30:05;;;;;;;11.73;7.62;;;;;;;24.33;38.62;100892.53;4410501;32;20023;-79
2021/06/30 05:32:31;;;;;;;12.23;7.05;;;;;;;24.29;38.91;100898.56;4413957;32;20124;-78
2021/06/30 05:34:56;;;;;;;12.55;7.55;;;;;;;24.48;38.11;100896.62;4406354;32;20390;-78
2021/06/30 05:37:22;;;;;;;13.82;7.70;;;;;;;24.60;38.24;100895.25;4413801;32;20262;-77
2021/06/30 05:39:47;;;;;;;12.70;7.25;;;;;;;24.57;38.38;100895.53;4407217;32;20081;-80
2021/06/30 05:42:15;;;;;;;12.73;8.50;;;;;;;24.67;37.97;100902.56;4409398;32;21145;-77
2021/06/30 05:44:40;;;;;;;13.02;8.18;;;;;;;24.65;37.98;100897.34;4411152;32;20030;-76
2021/06/30 05:47:06;;;;;;;15.85;8.23;;;;;;;24.61;38.15;100908.31;4410736;32;20433;-79
2021/06/30 05:49:33;;;;;;;15.43;8.27;;;;;;;24.76;37.92;100896.50;4412032;32;20050;-78
2021/06/30 05:51:58;;;;;;;14.52;9.05;;;;;;;24.66;38.21;100890.28;4409733;32;20053;-79
2021/06/30 05:54:24;;;;;;;14.55;9.15;;;;;;;24.89;37.96;100905.31;4416429;32;20070;-79
2021/06/30 05:56:52;;;;;;;14.60;9.00;;;;;;;24.96;37.73;100904.72;4412382;32;20098;-78
2021/06/30 05:59:18;;;;;;;14.57;9.77;;;;;;;24.93;37.75;100900.81;4411733;32;20069;-77
2021/06/30 06:01:44;;;;;;;14.73;8.50;;;;;;;25.04;37.65;100899.97;4411305;32;20533;-77
2021/06/30 06:04:10;;;;;;;18.30;8.50;;;;;;;25.13;37.63;100900.38;4412191;32;20030;-77
2021/06/30 06:06:36;;;;;;;11.27;7.60;;;;;;;25.09;37.59;100907.75;4412542;32;20090;-79
2021/06/30 06:09:02;;;;;;;16.05;7.97;;;;;;;25.04;37.54;100902.84;4410387;32;20180;-77
2021/06/30 06:11:28;;;;;;;15.18;8.18;;;;;;;25.05;37.46;100890.00;4409387;32;20161;-79
2021/06/30 06:13:54;;;;;;;10.75;7.40;;;;;;;24.71;38.34;100898.09;4411219;32;20035;-78
2021/06/30 06:16:21;;;;;;;12.50;7.20;;;;;;;24.50;38.52;100894.00;4412966;32;20059;-77
2021/06/30 06:18:48;;;;;;;13.55;6.70;;;;;;;24.92;37.87;100902.16;4411762;32;20405;-78
2021/06/30 06:21:15;;;;;;;14.02;7.07;;;;;;;24.88;37.93;100898.00;4410174;32;20061;-77
2021/06/30 06:23:41;;;;;;;12.57;6.95;;;;;;;24.67;38.33;100905.44;4413407;32;20048;-76
2021/06/30 06:26:08;;;;;;;12.90;7.37;;;;;;;24.73;37.92;100897.56;4411798;32;20026;-78
2021/06/30 06:28:35;;;;;;;12.27;7.90;;;;;;;24.84;38.03;100904.03;4405561;32;20082;-81
2021/06/30 06:31:02;;;;;;;12.98;7.95;;;;;;;24.65;38.33;100908.88;4406214;32;20018;-77
2021/06/30 06:33:28;;;;;;;18.15;10.02;;;;;;;25.10;37.59;100892.81;4408150;32;20542;-81
2021/06/30 06:35:54;;;;;;;13.70;8.90;;;;;;;24.87;37.73;100899.28;4406510;32;20053;-80
2021/06/30 06:38:22;;;;;;;12.07;7.50;;;;;;;25.17;37.17;100897.22;4400794;32;20149;-79
2021/06/30 06:40:49;;;;;;;11.18;7.10;;;;;;;25.09;37.00;100902.78;4402302;32;20145;-78
2021/06/30 06:43:14;;;;;;;9.45;7.00;;;;;;;25.13;37.17;100900.38;4401662;32;20111;-79
2021/06/30 06:45:40;;;;;;;9.38;5.30;;;;;;;25.38;36.72;100904.91;4397527;32;20509;-80
2021/06/30 06:48:07;;;;;;;10.15;5.15;;;;;;;25.35;36.74;100902.34;4402570;32;20124;-73
2021/06/30 06:50:33;;;;;;;9.90;5.50;;;;;;;25.19;37.03;100904.00;4404956;32;20500;-75
2021/06/30 06:52:58;;;;;;;12.45;6.18;;;;;;;25.69;36.20;100899.91;4400697;32;20140;-79
2021/06/30 06:55:24;;;;;;;9.73;7.72;;;;;;;25.80;35.93;100897.69;4398444;32;20503;-77
2021/06/30 06:57:50;;;;;;;10.85;7.90;;;;;;;25.52;35.96;100902.94;4400831;32;20082;-77
2021/06/30 07:00:17;;;;;;;9.90;7.95;;;;;;;25.84;35.90;100911.81;4393010;32;20093;-73
2021/06/30 07:02:43;;;;;;;15.27;9.07;;;;;;;25.96;35.84;100911.16;4409478;32;21263;-78
2021/06/30 07:05:09;;;;;;;8.55;6.40;;;;;;;25.77;35.89;100915.28;4392914;32;20438;-77
2021/06/30 07:07:40;;;;;;;7.30;5.45;;;;;;;25.86;35.75;100915.69;4395770;32;20077;-77
2021/06/30 07:10:06;;;;;;;8.00;5.00;;;;;;;25.73;36.41;100900.38;4392796;32;20053;-78
2021/06/30 07:12:32;;;;;;;7.25;5.47;;;;;;;25.39;36.75;100908.59;4394917;32;20082;-76
2021/06/30 07:15:01;;;;;;;11.35;5.50;;;;;;;25.20;36.98;100913.44;4397674;32;20302;-77
2021/06/30 07:17:27;;;;;;;9.90;5.82;;;;;;;25.36;36.50;100912.53;4400248;32;20091;-79
2021/06/30 07:19:53;;;;;;;10.43;5.28;;;;;;;25.10;36.87;100915.84;4400530;32;20104;-80
2021/06/30 07:22:19;;;;;;;10.93;6.12;;;;;;;25.15;36.64;100920.81;4399018;32;20161;-79
2021/06/30 07:24:45;;;;;;;10.23;5.90;;;;;;;25.15;36.71;100911.37;4395568;32;20053;-79
2021/06/30 07:27:11;;;;;;;14.45;6.15;;;;;;;24.97;36.94;100904.19;4394220;32;20074;-77
2021/06/30 07:29:37;;;;;;;14.32;6.60;;;;;;;25.28;36.63;100911.56;4393600;32;20081;-79
2021/06/30 07:32:03;;;;;;;7.78;6.07;;;;;;;25.06;36.77;100918.25;4401609;32;20550;-79
2021/06/30 07:34:28;;;;;;;11.30;5.57;;;;;;;25.13;36.75;100919.78;4402027;32;20110;-78
2021/06/30 07:36:54;;;;;;;8.60;6.40;;;;;;;25.29;36.42;100910.22;4396267;32;20331;-79
2021/06/30 07:39:20;;;;;;;9.80;6.28;;;;;;;25.16;36.37;100912.97;4399287;32;20111;-82
2021/06/30 07:41:46;;;;;;;10.88;7.32;;;;;;;25.36;35.95;100921.19;4401628;32;20428;-80
2021/06/30 07:44:11;;;;;;;10.73;7.30;;;;;;;25.29;36.20;100922.53;4399490;32;20446;-80
2021/06/30 07:46:37;;;;;;;11.07;6.97;;;;;;;24.80;36.97;100923.69;4394340;32;20038;-79
2021/06/30 07:49:03;;;;;;;8.80;6.30;;;;;;;24.79;37.18;100924.22;4395108;32;20344;-79
2021/06/30 07:51:29;;;;;;;9.48;6.10;;;;;;;24.95;36.85;100923.31;4400323;32;20453;-77
2021/06/30 07:53:55;;;;;;;14.95;6.55;;;;;;;24.93;36.94;100923.06;4401884;32;20069;-76
2021/06/30 07:56:33;;;;;;;10.00;5.80;;;;;;;24.82;36.97;100926.78;4400894;32;20441;-76
2021/06/30 07:59:04;;;;;;;6.68;4.93;;;;;;;24.70;37.30;100922.41;4395894;32;20153;-76
2021/06/30 08:01:30;;;;;;;8.63;5.47;;;;;;;25.33;36.53;100930.91;4400068;32;20103;-76
2021/06/30 08:03:55;;;;;;;9.18;4.90;;;;;;;24.88;36.81;100926.78;4406988;32;20093;-76
2021/06/30 08:06:21;;;;;;;9.75;5.05;;;;;;;24.94;36.80;100931.16;4400605;32;20839;-77
2021/06/30 08:08:47;;;;;;;7.87;4.12;;;;;;;25.24;36.29;100923.34;4402874;32;20072;-77
2021/06/30 08:11:13;;;;;;;6.35;4.78;;;;;;;25.18;36.12;100934.12;4396086;32;20155;-75
2021/06/30 08:13:39;;;;;;;6.18;4.22;;;;;;;25.58;35.61;100932.50;4393974;32;20575;-78
2021/06/30 08:16:04;;;;;;;7.97;4.68;;;;;;;25.37;35.51;100923.53;4398674;32;20034;-78
2021/06/30 08:18:30;;;;;;;5.03;3.80;;;;;;;25.73;35.25;100927.12;4397654;32;21293;-78
2021/06/30 08:20:56;;;;;;;5.32;4.12;;;;;;;25.84;34.63;100924.13;4399136;32;20470;-77
2021/06/30 08:23:22;;;;;;;6.22;3.80;;;;;;;25.08;36.01;100926.34;4400558;32;20443;-81
2021/06/30 08:25:47;;;;;;;5.20;3.10;;;;;;;25.59;35.32;100925.44;4396236;32;20070;-77
2021/06/30 08:28:17;;;;;;;4.47;3.17;;;;;;;25.61;35.09;100913.38;4393491;32;20193;-77
2021/06/30 08:30:45;;;;;;;5.05;3.08;;;;;;;26.03;34.53;100929.97;4399391;32;20095;-77
2021/06/30 08:33:11;;;;;;;4.85;3.20;;;;;;;26.08;33.96;100937.78;4396180;32;20046;-75
2021/06/30 08:35:36;;;;;;;4.97;3.62;;;;;;;25.96;34.23;100936.31;4402278;32;20141;-77
2021/06/30 08:38:03;;;;;;;8.85;2.92;;;;;;;26.03;33.90;100927.88;4400132;32;20080;-77
2021/06/30 08:40:29;;;;;;;4.97;2.95;;;;;;;26.54;33.49;100938.22;4400704;32;20134;-78
2021/06/30 08:42:54;;;;;;;4.75;2.95;;;;;;;26.88;32.77;100933.56;4402449;32;20469;-79
2021/06/30 08:45:20;;;;;;;5.25;2.87;;;;;;;26.66;33.14;100936.03;4396711;32;20073;-76
2021/06/30 08:47:47;;;;;;;4.62;2.78;;;;;;;26.24;33.90;100939.69;4401284;32;20070;-76
2021/06/30 08:50:13;;;;;;;5.37;3.17;;;;;;;25.90;34.40;100929.81;4394460;32;20183;-76
2021/06/30 08:52:40;;;;;;;4.60;2.95;;;;;;;26.32;33.97;100934.88;4400656;32;20462;-76
2021/06/30 08:55:08;;;;;;;6.18;3.00;;;;;;;26.60;33.50;100941.81;4401659;32;20666;-76
2021/06/30 08:57:36;;;;;;;6.70;3.28;;;;;;;26.91;33.08;100938.25;4399767;32;20095;-76
2021/06/30 09:00:03;;;;;;;7.62;4.15;;;;;;;26.56;33.52;100941.38;4397902;32;20135;-76
2021/06/30 09:02:29;;;;;;;7.30;3.67;;;;;;;25.99;34.40;100935.25;4400952;32;20042;-76
2021/06/30 09:07:41;;;;;;;5.22;3.50;;;;;;;26.59;33.28;100936.59;4399569;32;20513;-77
2021/06/30 09:10:08;;;;;;;4.68;3.20;;;;;;;25.45;35.26;100931.56;4400647;32;20171;-76
2021/06/30 09:12:39;;;;;;;12.75;3.17;;;;;;;26.00;34.44;100928.16;4399885;32;20089;-76
2021/06/30 09:15:26;;;;;;;5.60;3.67;;;;;;;26.68;33.59;100936.25;4398498;32;20416;-76
2021/06/30 09:17:52;;;;;;;5.82;3.65;;;;;;;26.52;33.55;100935.13;4400467;32;20116;-74
2021/06/30 09:20:18;;;;;;;6.03;4.18;;;;;;;26.62;33.70;100938.44;4400490;32;20046;-74
2021/06/30 09:22:51;;;;;;;6.35;3.50;;;;;;;26.78;33.43;100931.63;4401649;32;20176;-75
2021/06/30 09:28:21;;;;;;;7.03;4.15;;;;;;;27.75;32.30;100935.56;3980413;32;15022469;-78
2021/06/30 09:31:05;;;;;;;6.55;4.20;;;;;;;27.75;32.30;100935.56;4426693;32;20496;-77
2021/06/30 09:33:50;;;;;;;7.35;4.07;;;;;;;27.31;32.46;100945.03;4429075;32;20075;-80
2021/06/30 09:36:16;;;;;;;7.65;5.28;;;;;;;27.22;32.65;100951.19;4428423;32;20109;-77
2021/06/30 09:38:44;;;;;;;8.00;4.95;;;;;;;26.89;33.19;100943.81;4431214;32;20101;-77
2021/06/30 09:44:13;;;;;;;10.45;4.50;;;;;;;27.53;32.75;100953.31;3977147;32;15024502;-79
2021/06/30 09:46:41;;;;;;;10.88;5.57;;;;;;;27.53;32.75;100953.31;4425347;32;20469;-77
2021/06/30 09:51:46;;;;;;;9.27;5.22;;;;;;;27.31;33.01;100950.03;3970857;32;15029211;-79
2021/06/30 09:54:15;;;;;;;7.07;4.75;;;;;;;27.31;33.01;100950.03;4428176;32;20075;-76
2021/06/30 09:56:54;;;;;;;8.63;4.97;;;;;;;27.72;32.19;100956.94;4426577;32;20077;-79
2021/06/30 09:59:26;;;;;;;6.75;4.57;;;;;;;27.95;31.53;100946.53;4426724;32;20061;-78
2021/06/30 10:02:00;;;;;;;7.03;3.92;;;;;;;27.66;32.15;100950.47;4421871;32;20030;-78
2021/06/30 10:12:31;;;;;;;6.85;4.72;;;;;;;28.13;31.58;100951.44;3975530;32;15024194;-76
2021/06/30 10:14:58;;;;;;;7.30;4.57;;;;;;;28.13;31.58;100951.44;4426898;32;20081;-80
2021/06/30 10:17:25;;;;;;;7.15;3.62;;;;;;;27.95;31.26;100948.66;4426081;32;20297;-77
2021/06/30 10:19:54;;;;;;;5.35;3.78;;;;;;;27.24;32.01;100942.75;4422183;32;20388;-77
2021/06/30 10:22:22;;;;;;;3.65;3.28;;;;;;;27.77;31.79;100935.81;4425120;32;20584;-77
2021/06/30 10:24:49;;;;;;;5.93;3.30;;;;;;;28.31;30.76;100936.06;4421461;32;20451;-77
2021/06/30 10:27:15;;;;;;;4.85;2.97;;;;;;;28.33;30.53;100924.72;4427622;32;20368;-79
2021/06/30 10:29:51;;;;;;;5.72;3.15;;;;;;;28.51;29.99;100934.63;4420631;32;20170;-79
2021/06/30 10:32:18;;;;;;;7.18;4.00;;;;;;;29.05;29.68;100931.06;4425185;32;20067;-78
2021/06/30 10:40:04;;;;;;;6.00;3.67;;;;;;;30.08;28.43;100938.37;3995916;31;15017089;-77
2021/06/30 10:42:34;;;;;;;5.90;4.00;;;;;;;30.08;28.43;100938.37;4456230;32;20136;-77
2021/06/30 10:45:21;;;;;;;4.25;3.30;;;;;;;29.32;29.33;100932.50;4458911;32;20128;-77
2021/06/30 10:50:45;;;;;;;4.60;3.22;;;;;;;30.78;27.39;100944.81;3974580;32;15025394;-77
2021/06/30 10:55:52;;;;;;;4.07;3.03;;;;;;;30.84;26.92;100946.16;3976686;32;15024632;-78
2021/06/30 10:58:23;;;;;;;3.97;2.35;;;;;;;30.84;26.92;100946.16;4430783;32;20049;-77
2021/06/30 11:29:58;;;;;;;6.10;3.30;;;;;;;31.49;26.07;100930.06;3990312;31;15015274;-82
2021/06/30 11:37:54;;;;;;;5.82;3.12;;;;;;;30.27;27.56;100930.19;3969723;32;15023168;-78
2021/06/30 11:40:38;;;;;;;5.30;2.90;;;;;;;29.88;28.03;100930.47;4421773;32;20127;-77
2021/06/30 11:43:25;;;;;;;6.60;2.80;;;;;;;29.81;28.10;100930.41;4420957;32;20107;-78
2021/06/30 11:45:53;;;;;;;5.45;3.03;;;;;;;30.20;27.58;100935.97;4422831;32;20101;-77
2021/06/30 11:48:19;;;;;;;6.68;3.08;;;;;;;30.46;27.26;100935.69;4421906;32;20088;-76
2021/06/30 11:53:42;;;;;;;5.00;2.78;;;;;;;31.67;26.05;100931.03;3969121;32;15022491;-77
2021/06/30 11:56:10;;;;;;;4.57;2.80;;;;;;;31.67;26.05;100931.03;4423032;32;20130;-77
2021/06/30 12:01:17;;;;;;;4.43;2.60;;;;;;;31.38;26.41;100944.97;3972278;32;15026544;-82
2021/06/30 12:03:42;;;;;;;7.15;2.90;;;;;;;31.38;26.41;100944.97;4427742;32;20045;-79
2021/06/30 12:06:26;;;;;;;5.35;2.70;;;;;;;30.75;26.94;100934.31;4427892;32;20072;-77
2021/06/30 12:11:47;;;;;;;6.95;4.28;;;;;;;32.02;25.88;100936.66;3984777;32;15023654;-77
2021/06/30 12:14:16;;;;;;;6.10;3.42;;;;;;;32.02;25.88;100936.66;4449010;32;20112;-79
2021/06/30 12:19:19;;;;;;;2.43;2.23;;;;;;;32.77;24.77;100934.91;3990840;31;15019173;-78
2021/06/30 12:21:48;;;;;;;7.00;3.65;;;;;;;32.77;24.77;100934.91;4442146;32;20124;-78
2021/06/30 12:24:20;;;;;;;5.97;2.47;;;;;;;31.74;25.84;100938.97;4448320;32;20473;-81
2021/06/30 12:29:34;;;;;;;4.72;3.00;;;;;;;31.02;26.91;100937.72;3948979;32;15727281;-81
2021/06/30 12:32:03;;;;;;;4.65;2.70;;;;;;;31.02;26.91;100937.72;4411960;32;20076;-78
2021/06/30 12:34:29;;;;;;;2.80;2.50;;;;;;;29.93;28.00;100937.47;4427780;32;20025;-77
2021/06/30 12:36:55;;;;;;;5.07;2.90;;;;;;;30.73;26.96;100939.91;4425957;32;20107;-79